UAL2901 KLAX-KSFO
Flight info
| Callsign | UAL2901 |
|---|---|
| Flight time | 0h 51m |
| Altitude | 36000 |
| Route | SUMMR2 STOKD SERFR SERFR4 |
| Aircraft | B38M/M-SDE1FGHILORVWXY/HB1 |
Departure
| Time | 2026-04-20 03:01 |
|---|---|
| Airport | Los Angeles International Airport (KLAX) |
Arrival
| Time | 2026-04-20 03:53 |
|---|---|
| Airport | San Francisco International Airport (KSFO) |
| Time | Latitude | Longitude | Altitude | Speed | Heading |
|---|---|---|---|---|---|
| 2026-04-20 02:46 | 33.94048 | -118.40751 | 128 ft | 0 kts | 107° |
| 2026-04-20 02:48 | 33.94051 | -118.40765 | 128 ft | 4 kts | 103° |
| 2026-04-20 02:48 | 33.94056 | -118.40797 | 126 ft | 4 kts | 97° |
| 2026-04-20 02:49 | 33.94062 | -118.40825 | 127 ft | 4 kts | 135° |
| 2026-04-20 02:49 | 33.94071 | -118.40830 | 124 ft | 1 kts | 172° |
| 2026-04-20 02:49 | 33.94072 | -118.40830 | 124 ft | 0 kts | 172° |
| 2026-04-20 02:54 | 33.94071 | -118.40830 | 128 ft | 1 kts | 172° |
| 2026-04-20 02:54 | 33.94047 | -118.40826 | 127 ft | 6 kts | 172° |
| 2026-04-20 02:54 | 33.93998 | -118.40818 | 124 ft | 9 kts | 172° |
| 2026-04-20 02:54 | 33.93929 | -118.40806 | 127 ft | 11 kts | 164° |
| 2026-04-20 02:55 | 33.93859 | -118.40747 | 126 ft | 14 kts | 148° |
| 2026-04-20 02:55 | 33.93813 | -118.40679 | 126 ft | 11 kts | 96° |
| 2026-04-20 02:55 | 33.93822 | -118.40580 | 126 ft | 13 kts | 84° |
| 2026-04-20 02:55 | 33.93834 | -118.40462 | 128 ft | 16 kts | 83° |
| 2026-04-20 02:56 | 33.93848 | -118.40322 | 128 ft | 18 kts | 84° |
| 2026-04-20 02:56 | 33.93863 | -118.40161 | 126 ft | 21 kts | 84° |
| 2026-04-20 02:56 | 33.93884 | -118.39980 | 124 ft | 23 kts | 80° |
| 2026-04-20 02:56 | 33.93904 | -118.39780 | 128 ft | 25 kts | 83° |
| 2026-04-20 02:57 | 33.93925 | -118.39560 | 128 ft | 28 kts | 83° |
| 2026-04-20 02:57 | 33.93950 | -118.39322 | 128 ft | 30 kts | 82° |
| 2026-04-20 02:57 | 33.93976 | -118.39067 | 128 ft | 32 kts | 83° |
| 2026-04-20 02:57 | 33.94002 | -118.38794 | 128 ft | 34 kts | 83° |
| 2026-04-20 02:58 | 33.94032 | -118.38507 | 127 ft | 36 kts | 82° |
| 2026-04-20 02:58 | 33.94065 | -118.38205 | 128 ft | 37 kts | 83° |
| 2026-04-20 02:58 | 33.94077 | -118.38071 | 128 ft | 7 kts | 84° |
| 2026-04-20 02:58 | 33.94035 | -118.38007 | 125 ft | 15 kts | 165° |
| 2026-04-20 02:59 | 33.93993 | -118.37999 | 126 ft | 1 kts | 201° |
| 2026-04-20 02:59 | 33.93983 | -118.38024 | 127 ft | 7 kts | 256° |
| 2026-04-20 02:59 | 33.93979 | -118.38049 | 126 ft | 0 kts | 261° |
| 2026-04-20 03:00 | 33.93978 | -118.38069 | 124 ft | 6 kts | 267° |
| 2026-04-20 03:00 | 33.93960 | -118.38242 | 127 ft | 51 kts | 263° |
| 2026-04-20 03:00 | 33.93881 | -118.39002 | 126 ft | 130 kts | 263° |
| 2026-04-20 03:00 | 33.93741 | -118.40337 | 204 ft | 186 kts | 263° |
| 2026-04-20 03:01 | 33.93563 | -118.41960 | 681 ft | 198 kts | 261° |
| 2026-04-20 03:01 | 33.93336 | -118.43605 | 1673 ft | 200 kts | 258° |
| 2026-04-20 03:01 | 33.93068 | -118.45187 | 2775 ft | 187 kts | 257° |
| 2026-04-20 03:01 | 33.92838 | -118.46765 | 3457 ft | 199 kts | 260° |
| 2026-04-20 03:02 | 33.92727 | -118.48507 | 3983 ft | 212 kts | 264° |
| 2026-04-20 03:02 | 33.92698 | -118.50158 | 4542 ft | 195 kts | 265° |
| 2026-04-20 03:02 | 33.92625 | -118.51819 | 4759 ft | 206 kts | 262° |
| 2026-04-20 03:02 | 33.92487 | -118.53608 | 4921 ft | 223 kts | 262° |
| 2026-04-20 03:03 | 33.92340 | -118.55504 | 4970 ft | 231 kts | 262° |
| 2026-04-20 03:03 | 33.92191 | -118.57444 | 4957 ft | 234 kts | 262° |
| 2026-04-20 03:03 | 33.92062 | -118.59403 | 4937 ft | 235 kts | 266° |
| 2026-04-20 03:03 | 33.92043 | -118.61367 | 4935 ft | 236 kts | 266° |
| 2026-04-20 03:04 | 33.92023 | -118.63340 | 4928 ft | 236 kts | 266° |
| 2026-04-20 03:04 | 33.91999 | -118.65309 | 4928 ft | 235 kts | 267° |
| 2026-04-20 03:04 | 33.91970 | -118.67285 | 5451 ft | 233 kts | 266° |
| 2026-04-20 03:04 | 33.91939 | -118.69246 | 6343 ft | 236 kts | 266° |
| 2026-04-20 03:05 | 33.91906 | -118.71233 | 7147 ft | 238 kts | 265° |
| 2026-04-20 03:05 | 33.91871 | -118.73242 | 7931 ft | 243 kts | 265° |
| 2026-04-20 03:05 | 33.91836 | -118.75276 | 8836 ft | 242 kts | 265° |
| 2026-04-20 03:05 | 33.91801 | -118.77312 | 9701 ft | 245 kts | 265° |
| 2026-04-20 03:06 | 33.91764 | -118.79377 | 10494 ft | 247 kts | 265° |
| 2026-04-20 03:06 | 33.91727 | -118.81467 | 11205 ft | 256 kts | 265° |
| 2026-04-20 03:06 | 33.91717 | -118.83698 | 11676 ft | 277 kts | 268° |
| 2026-04-20 03:06 | 33.91795 | -118.86074 | 12114 ft | 298 kts | 269° |
| 2026-04-20 03:07 | 33.91875 | -118.88676 | 12599 ft | 316 kts | 269° |
| 2026-04-20 03:07 | 33.91951 | -118.91336 | 13226 ft | 328 kts | 269° |
| 2026-04-20 03:07 | 33.92028 | -118.94125 | 14119 ft | 330 kts | 269° |
| 2026-04-20 03:07 | 33.92102 | -118.96868 | 14935 ft | 334 kts | 269° |
| 2026-04-20 03:08 | 33.92296 | -118.99669 | 15771 ft | 340 kts | 281° |
| 2026-04-20 03:08 | 33.93228 | -119.02303 | 16636 ft | 348 kts | 301° |
| 2026-04-20 03:08 | 33.94852 | -119.04497 | 17452 ft | 355 kts | 314° |
| 2026-04-20 03:08 | 33.96653 | -119.06569 | 18250 ft | 359 kts | 313° |
| 2026-04-20 03:09 | 33.98467 | -119.08644 | 18946 ft | 361 kts | 314° |
| 2026-04-20 03:09 | 34.00304 | -119.10727 | 19654 ft | 364 kts | 314° |
| 2026-04-20 03:09 | 34.02155 | -119.12818 | 20335 ft | 366 kts | 314° |
| 2026-04-20 03:09 | 34.03393 | -119.14216 | 20786 ft | 368 kts | 314° |
| 2026-04-20 03:10 | 34.05267 | -119.16331 | 21439 ft | 371 kts | 314° |
| 2026-04-20 03:10 | 34.07799 | -119.19188 | 22306 ft | 375 kts | 314° |
| 2026-04-20 03:10 | 34.09070 | -119.20623 | 22743 ft | 376 kts | 314° |
| 2026-04-20 03:10 | 34.10984 | -119.22786 | 23379 ft | 379 kts | 314° |
| 2026-04-20 03:11 | 34.12918 | -119.24973 | 23924 ft | 382 kts | 314° |
| 2026-04-20 03:11 | 34.14859 | -119.27169 | 24467 ft | 384 kts | 314° |
| 2026-04-20 03:11 | 34.16810 | -119.29379 | 24988 ft | 386 kts | 314° |
| 2026-04-20 03:11 | 34.18776 | -119.31606 | 25506 ft | 388 kts | 314° |
| 2026-04-20 03:12 | 34.20750 | -119.33844 | 26014 ft | 390 kts | 314° |
| 2026-04-20 03:12 | 34.22699 | -119.36055 | 26512 ft | 392 kts | 314° |
| 2026-04-20 03:12 | 34.24700 | -119.38326 | 26970 ft | 395 kts | 314° |
| 2026-04-20 03:12 | 34.26709 | -119.40608 | 27474 ft | 397 kts | 314° |
| 2026-04-20 03:13 | 34.28726 | -119.42901 | 27951 ft | 399 kts | 314° |
| 2026-04-20 03:13 | 34.30755 | -119.45209 | 28423 ft | 401 kts | 314° |
| 2026-04-20 03:13 | 34.32794 | -119.47531 | 28885 ft | 403 kts | 314° |
| 2026-04-20 03:13 | 34.34844 | -119.49866 | 29346 ft | 406 kts | 314° |
| 2026-04-20 03:14 | 34.36909 | -119.52220 | 29808 ft | 408 kts | 314° |
| 2026-04-20 03:14 | 34.38983 | -119.54586 | 30211 ft | 410 kts | 314° |
| 2026-04-20 03:14 | 34.41063 | -119.56961 | 30570 ft | 413 kts | 314° |
| 2026-04-20 03:14 | 34.43160 | -119.59356 | 30938 ft | 414 kts | 314° |
| 2026-04-20 03:15 | 34.45230 | -119.61723 | 31320 ft | 416 kts | 314° |
| 2026-04-20 03:15 | 34.47331 | -119.64126 | 31663 ft | 417 kts | 314° |
| 2026-04-20 03:15 | 34.49449 | -119.66552 | 32048 ft | 419 kts | 314° |
| 2026-04-20 03:15 | 34.51572 | -119.68984 | 32420 ft | 421 kts | 314° |
| 2026-04-20 03:16 | 34.53704 | -119.71428 | 32803 ft | 421 kts | 314° |
| 2026-04-20 03:16 | 34.55825 | -119.73861 | 33296 ft | 419 kts | 314° |
| 2026-04-20 03:16 | 34.57938 | -119.76288 | 33820 ft | 417 kts | 314° |
| 2026-04-20 03:16 | 34.60043 | -119.78707 | 34298 ft | 414 kts | 314° |
| 2026-04-20 03:17 | 34.62130 | -119.81108 | 34696 ft | 414 kts | 314° |
| 2026-04-20 03:17 | 34.64216 | -119.83509 | 35075 ft | 413 kts | 313° |
| 2026-04-20 03:17 | 34.66305 | -119.85914 | 35411 ft | 413 kts | 313° |
| 2026-04-20 03:17 | 34.68391 | -119.88318 | 35766 ft | 412 kts | 313° |
| 2026-04-20 03:18 | 34.70475 | -119.90722 | 35970 ft | 414 kts | 313° |
| 2026-04-20 03:18 | 34.74641 | -119.95532 | 36001 ft | 410 kts | 313° |
| 2026-04-20 03:19 | 34.78780 | -120.00318 | 35977 ft | 410 kts | 313° |
| 2026-04-20 03:19 | 34.82890 | -120.05077 | 35973 ft | 410 kts | 313° |
| 2026-04-20 03:20 | 34.87025 | -120.09873 | 35984 ft | 410 kts | 313° |
| 2026-04-20 03:20 | 34.91152 | -120.14665 | 35994 ft | 409 kts | 312° |
| 2026-04-20 03:21 | 34.95262 | -120.19445 | 35992 ft | 409 kts | 312° |
| 2026-04-20 03:21 | 34.99385 | -120.24248 | 35994 ft | 410 kts | 312° |
| 2026-04-20 03:22 | 35.03504 | -120.29051 | 35993 ft | 409 kts | 312° |
| 2026-04-20 03:22 | 35.07628 | -120.33870 | 36002 ft | 410 kts | 312° |
| 2026-04-20 03:23 | 35.11743 | -120.38684 | 35996 ft | 410 kts | 312° |
| 2026-04-20 03:23 | 35.15829 | -120.43471 | 35988 ft | 409 kts | 312° |
| 2026-04-20 03:24 | 35.19939 | -120.48294 | 35991 ft | 410 kts | 311° |
| 2026-04-20 03:24 | 35.24051 | -120.53126 | 36005 ft | 410 kts | 311° |
| 2026-04-20 03:25 | 35.28162 | -120.57962 | 35986 ft | 410 kts | 311° |
| 2026-04-20 03:25 | 35.32273 | -120.62809 | 35990 ft | 410 kts | 311° |
| 2026-04-20 03:26 | 35.36389 | -120.67665 | 36000 ft | 410 kts | 311° |
| 2026-04-20 03:26 | 35.40492 | -120.72513 | 35998 ft | 410 kts | 311° |
| 2026-04-20 03:27 | 35.44601 | -120.77376 | 35991 ft | 411 kts | 311° |
| 2026-04-20 03:27 | 35.48778 | -120.82184 | 35982 ft | 414 kts | 318° |
| 2026-04-20 03:28 | 35.53339 | -120.86436 | 36016 ft | 415 kts | 318° |
| 2026-04-20 03:28 | 35.60247 | -120.92858 | 35990 ft | 415 kts | 318° |
| 2026-04-20 03:29 | 35.64846 | -120.97135 | 35997 ft | 416 kts | 317° |
| 2026-04-20 03:29 | 35.69465 | -121.01435 | 35986 ft | 416 kts | 317° |
| 2026-04-20 03:30 | 35.74076 | -121.05735 | 35998 ft | 416 kts | 317° |
| 2026-04-20 03:30 | 35.78697 | -121.10051 | 35987 ft | 417 kts | 317° |
| 2026-04-20 03:31 | 35.83311 | -121.14366 | 35988 ft | 417 kts | 317° |
| 2026-04-20 03:31 | 35.87899 | -121.18663 | 35974 ft | 417 kts | 317° |
| 2026-04-20 03:32 | 35.92520 | -121.22999 | 36003 ft | 417 kts | 317° |
| 2026-04-20 03:32 | 35.97148 | -121.27348 | 35979 ft | 418 kts | 317° |
| 2026-04-20 03:33 | 36.01781 | -121.31707 | 35973 ft | 418 kts | 317° |
| 2026-04-20 03:33 | 36.06315 | -121.35966 | 35914 ft | 396 kts | 319° |
| 2026-04-20 03:34 | 36.08636 | -121.37764 | 35626 ft | 393 kts | 322° |
| 2026-04-20 03:34 | 36.10954 | -121.39538 | 35184 ft | 390 kts | 322° |
| 2026-04-20 03:34 | 36.13251 | -121.41321 | 34636 ft | 391 kts | 321° |
| 2026-04-20 03:34 | 36.15561 | -121.43125 | 33956 ft | 397 kts | 321° |
| 2026-04-20 03:35 | 36.17925 | -121.44981 | 33118 ft | 409 kts | 322° |
| 2026-04-20 03:35 | 36.20373 | -121.46903 | 32371 ft | 422 kts | 322° |
| 2026-04-20 03:35 | 36.22886 | -121.48878 | 31689 ft | 431 kts | 322° |
| 2026-04-20 03:35 | 36.25423 | -121.50874 | 31010 ft | 433 kts | 322° |
| 2026-04-20 03:36 | 36.27967 | -121.52877 | 30310 ft | 434 kts | 322° |
| 2026-04-20 03:36 | 36.30526 | -121.54894 | 29463 ft | 437 kts | 322° |
| 2026-04-20 03:36 | 36.33064 | -121.56895 | 28671 ft | 438 kts | 322° |
| 2026-04-20 03:36 | 36.35634 | -121.58923 | 27951 ft | 438 kts | 322° |
| 2026-04-20 03:37 | 36.38210 | -121.60959 | 27195 ft | 438 kts | 322° |
| 2026-04-20 03:37 | 36.40779 | -121.62990 | 26465 ft | 439 kts | 322° |
| 2026-04-20 03:37 | 36.43360 | -121.65033 | 25711 ft | 441 kts | 322° |
| 2026-04-20 03:37 | 36.45955 | -121.67087 | 24943 ft | 444 kts | 322° |
| 2026-04-20 03:38 | 36.48565 | -121.69155 | 24168 ft | 447 kts | 322° |
| 2026-04-20 03:38 | 36.51196 | -121.71231 | 23457 ft | 448 kts | 322° |
| 2026-04-20 03:38 | 36.53820 | -121.73303 | 22833 ft | 444 kts | 322° |
| 2026-04-20 03:38 | 36.56397 | -121.75341 | 22280 ft | 436 kts | 322° |
| 2026-04-20 03:39 | 36.58922 | -121.77338 | 21776 ft | 423 kts | 322° |
| 2026-04-20 03:39 | 36.61373 | -121.79279 | 21278 ft | 412 kts | 322° |
| 2026-04-20 03:39 | 36.63765 | -121.81175 | 20811 ft | 406 kts | 322° |
| 2026-04-20 03:39 | 36.66144 | -121.83061 | 20324 ft | 405 kts | 322° |
| 2026-04-20 03:40 | 36.68510 | -121.84939 | 19850 ft | 403 kts | 322° |
| 2026-04-20 03:40 | 36.70870 | -121.86814 | 19386 ft | 402 kts | 322° |
| 2026-04-20 03:40 | 36.73212 | -121.88639 | 18921 ft | 403 kts | 327° |
| 2026-04-20 03:40 | 36.75865 | -121.89850 | 18383 ft | 412 kts | 344° |
| 2026-04-20 03:41 | 36.78656 | -121.90644 | 17852 ft | 411 kts | 343° |
| 2026-04-20 03:41 | 36.81450 | -121.91445 | 17302 ft | 411 kts | 344° |
| 2026-04-20 03:41 | 36.84229 | -121.92228 | 16767 ft | 410 kts | 344° |
| 2026-04-20 03:41 | 36.87008 | -121.93007 | 16235 ft | 409 kts | 344° |
| 2026-04-20 03:42 | 36.89789 | -121.93785 | 15697 ft | 408 kts | 345° |
| 2026-04-20 03:42 | 36.92561 | -121.94561 | 15157 ft | 408 kts | 345° |
| 2026-04-20 03:42 | 36.95311 | -121.95377 | 14599 ft | 406 kts | 340° |
| 2026-04-20 03:42 | 36.98001 | -121.96458 | 14049 ft | 406 kts | 340° |
| 2026-04-20 03:43 | 37.00693 | -121.97527 | 13506 ft | 405 kts | 340° |
| 2026-04-20 03:43 | 37.03383 | -121.98579 | 12897 ft | 403 kts | 340° |
| 2026-04-20 03:43 | 37.06023 | -121.99604 | 12441 ft | 392 kts | 340° |
| 2026-04-20 03:43 | 37.08596 | -122.00600 | 11975 ft | 383 kts | 341° |
| 2026-04-20 03:44 | 37.11132 | -122.01582 | 11536 ft | 380 kts | 341° |
| 2026-04-20 03:44 | 37.13656 | -122.02559 | 11112 ft | 377 kts | 341° |
| 2026-04-20 03:44 | 37.16171 | -122.03534 | 10489 ft | 380 kts | 341° |
| 2026-04-20 03:44 | 37.18714 | -122.04520 | 9780 ft | 385 kts | 341° |
| 2026-04-20 03:45 | 37.21293 | -122.05521 | 8976 ft | 390 kts | 341° |
| 2026-04-20 03:45 | 37.23870 | -122.06525 | 8464 ft | 387 kts | 341° |
| 2026-04-20 03:45 | 37.26423 | -122.07515 | 8121 ft | 380 kts | 340° |
| 2026-04-20 03:45 | 37.28907 | -122.08493 | 7790 ft | 367 kts | 341° |
| 2026-04-20 03:46 | 37.31299 | -122.09438 | 7246 ft | 355 kts | 341° |
| 2026-04-20 03:46 | 37.33624 | -122.10350 | 6784 ft | 343 kts | 341° |
| 2026-04-20 03:46 | 37.35857 | -122.11230 | 6344 ft | 331 kts | 341° |
| 2026-04-20 03:46 | 37.38033 | -122.12049 | 5912 ft | 320 kts | 344° |
| 2026-04-20 03:47 | 37.40124 | -122.12741 | 5484 ft | 310 kts | 344° |
| 2026-04-20 03:47 | 37.42171 | -122.13424 | 5128 ft | 299 kts | 343° |
| 2026-04-20 03:47 | 37.44150 | -122.14091 | 4803 ft | 289 kts | 343° |
| 2026-04-20 03:47 | 37.46063 | -122.14736 | 4471 ft | 280 kts | 343° |
| 2026-04-20 03:48 | 37.47911 | -122.15363 | 4150 ft | 271 kts | 343° |
| 2026-04-20 03:48 | 37.49703 | -122.15970 | 3839 ft | 262 kts | 343° |
| 2026-04-20 03:48 | 37.51438 | -122.16558 | 3561 ft | 254 kts | 343° |
| 2026-04-20 03:48 | 37.53062 | -122.17284 | 3249 ft | 243 kts | 322° |
| 2026-04-20 03:49 | 37.54128 | -122.18774 | 3072 ft | 218 kts | 292° |
| 2026-04-20 03:49 | 37.54829 | -122.20369 | 3052 ft | 202 kts | 293° |
| 2026-04-20 03:49 | 37.55498 | -122.21896 | 3032 ft | 194 kts | 292° |
| 2026-04-20 03:49 | 37.56119 | -122.23330 | 3004 ft | 184 kts | 292° |
| 2026-04-20 03:50 | 37.56750 | -122.24798 | 2655 ft | 196 kts | 293° |
| 2026-04-20 03:50 | 37.57393 | -122.26299 | 2264 ft | 195 kts | 293° |
| 2026-04-20 03:50 | 37.58029 | -122.27811 | 1575 ft | 197 kts | 294° |
| 2026-04-20 03:50 | 37.58597 | -122.29308 | 1036 ft | 180 kts | 292° |
| 2026-04-20 03:51 | 37.59135 | -122.30643 | 685 ft | 164 kts | 298° |
| 2026-04-20 03:51 | 37.59719 | -122.31828 | 426 ft | 164 kts | 301° |
| 2026-04-20 03:51 | 37.60253 | -122.33098 | 415 ft | 164 kts | 292° |
| 2026-04-20 03:51 | 37.60754 | -122.34343 | 312 ft | 156 kts | 296° |
| 2026-04-20 03:52 | 37.61261 | -122.35490 | 70 ft | 145 kts | 294° |
| 2026-04-20 03:52 | 37.61688 | -122.36568 | 20 ft | 126 kts | 297° |
| 2026-04-20 03:52 | 37.62070 | -122.37431 | 18 ft | 94 kts | 296° |
| 2026-04-20 03:52 | 37.62308 | -122.37984 | 27 ft | 58 kts | 298° |
| 2026-04-20 03:53 | 37.62270 | -122.38266 | 25 ft | 28 kts | 205° |
| 2026-04-20 03:53 | 37.62089 | -122.38336 | 28 ft | 16 kts | 201° |
| 2026-04-20 03:53 | 37.62073 | -122.38450 | 25 ft | 17 kts | 293° |
| 2026-04-20 03:53 | 37.62037 | -122.38580 | 19 ft | 19 kts | 210° |
| 2026-04-20 03:54 | 37.61960 | -122.38630 | 20 ft | 10 kts | 211° |
| 2026-04-20 03:54 | 37.61951 | -122.38638 | 18 ft | 0 kts | 215° |